sensor_id;sensor_type;location;lat;lon;timestamp;temperature;humidity
51765;DHT22;37835;53.256;6.456;2023-05-10T00:01:21;13.10;99.90
51765;DHT22;37835;53.256;6.456;2023-05-10T00:03:46;13.10;99.90
51765;DHT22;37835;53.256;6.456;2023-05-10T00:06:12;13.10;99.90
51765;DHT22;37835;53.256;6.456;2023-05-10T00:08:37;13.00;99.90
51765;DHT22;37835;53.256;6.456;2023-05-10T00:11:03;13.00;99.90
51765;DHT22;37835;53.256;6.456;2023-05-10T00:13:29;13.00;99.90
51765;DHT22;37835;53.256;6.456;2023-05-10T00:15:55;13.00;99.90
51765;DHT22;37835;53.256;6.456;2023-05-10T00:18:20;13.00;99.90
51765;DHT22;37835;53.256;6.456;2023-05-10T00:20:46;13.00;99.90
51765;DHT22;37835;53.256;6.456;2023-05-10T00:23:12;12.90;99.90
51765;DHT22;37835;53.256;6.456;2023-05-10T00:25:37;12.90;99.90
51765;DHT22;37835;53.256;6.456;2023-05-10T00:28:03;12.90;99.90
51765;DHT22;37835;53.256;6.456;2023-05-10T00:30:28;12.90;99.90
51765;DHT22;37835;53.256;6.456;2023-05-10T00:32:54;12.80;99.90
51765;DHT22;37835;53.256;6.456;2023-05-10T00:35:20;12.80;99.90
51765;DHT22;37835;53.256;6.456;2023-05-10T00:37:46;12.80;99.90
51765;DHT22;37835;53.256;6.456;2023-05-10T00:40:12;12.70;99.90
51765;DHT22;37835;53.256;6.456;2023-05-10T00:42:38;12.70;99.90
51765;DHT22;37835;53.256;6.456;2023-05-10T00:45:04;12.70;99.90
51765;DHT22;37835;53.256;6.456;2023-05-10T00:47:30;12.80;99.90
51765;DHT22;37835;53.256;6.456;2023-05-10T00:49:55;12.70;99.90
51765;DHT22;37835;53.256;6.456;2023-05-10T00:52:21;12.70;99.90
51765;DHT22;37835;53.256;6.456;2023-05-10T00:54:50;12.70;99.90
51765;DHT22;37835;53.256;6.456;2023-05-10T00:57:16;12.60;99.90
51765;DHT22;37835;53.256;6.456;2023-05-10T00:59:42;12.60;99.90
51765;DHT22;37835;53.256;6.456;2023-05-10T01:02:08;12.60;99.90
51765;DHT22;37835;53.256;6.456;2023-05-10T01:04:35;12.60;99.90
51765;DHT22;37835;53.256;6.456;2023-05-10T01:07:00;12.60;99.90
51765;DHT22;37835;53.256;6.456;2023-05-10T01:09:26;12.60;99.90
51765;DHT22;37835;53.256;6.456;2023-05-10T01:11:53;12.60;99.90
51765;DHT22;37835;53.256;6.456;2023-05-10T01:14:19;12.60;99.90
51765;DHT22;37835;53.256;6.456;2023-05-10T01:16:47;12.60;99.90
51765;DHT22;37835;53.256;6.456;2023-05-10T01:19:19;12.50;99.90
51765;DHT22;37835;53.256;6.456;2023-05-10T01:30:35;12.50;99.90
51765;DHT22;37835;53.256;6.456;2023-05-10T01:38:57;12.40;99.90
51765;DHT22;37835;53.256;6.456;2023-05-10T01:47:05;12.40;99.90
51765;DHT22;37835;53.256;6.456;2023-05-10T01:49:39;12.40;99.90
51765;DHT22;37835;53.256;6.456;2023-05-10T01:52:11;12.40;99.90
51765;DHT22;37835;53.256;6.456;2023-05-10T01:54:44;12.40;99.90
51765;DHT22;37835;53.256;6.456;2023-05-10T01:57:13;12.40;99.90
51765;DHT22;37835;53.256;6.456;2023-05-10T01:59:40;12.40;99.90
51765;DHT22;37835;53.256;6.456;2023-05-10T02:02:10;12.40;99.90
51765;DHT22;37835;53.256;6.456;2023-05-10T02:04:38;12.40;99.90
51765;DHT22;37835;53.256;6.456;2023-05-10T02:07:06;12.30;99.90
51765;DHT22;37835;53.256;6.456;2023-05-10T02:09:33;12.30;99.90
51765;DHT22;37835;53.256;6.456;2023-05-10T02:12:00;12.30;99.90
51765;DHT22;37835;53.256;6.456;2023-05-10T02:14:29;12.30;99.90
51765;DHT22;37835;53.256;6.456;2023-05-10T02:16:56;12.30;99.90
51765;DHT22;37835;53.256;6.456;2023-05-10T02:19:24;12.30;99.90
51765;DHT22;37835;53.256;6.456;2023-05-10T02:21:51;12.30;99.90
51765;DHT22;37835;53.256;6.456;2023-05-10T02:24:17;12.30;99.90
51765;DHT22;37835;53.256;6.456;2023-05-10T02:26:45;12.30;99.90
51765;DHT22;37835;53.256;6.456;2023-05-10T02:29:13;12.20;99.90
51765;DHT22;37835;53.256;6.456;2023-05-10T02:31:39;12.30;99.90
51765;DHT22;37835;53.256;6.456;2023-05-10T02:34:09;12.20;99.90
51765;DHT22;37835;53.256;6.456;2023-05-10T02:36:36;12.20;99.90
51765;DHT22;37835;53.256;6.456;2023-05-10T02:39:03;12.20;99.90
51765;DHT22;37835;53.256;6.456;2023-05-10T02:41:32;12.20;99.90
51765;DHT22;37835;53.256;6.456;2023-05-10T02:44:01;12.20;99.90
51765;DHT22;37835;53.256;6.456;2023-05-10T02:46:28;12.20;99.90
51765;DHT22;37835;53.256;6.456;2023-05-10T02:48:54;12.20;99.90
51765;DHT22;37835;53.256;6.456;2023-05-10T02:51:21;12.20;99.90
51765;DHT22;37835;53.256;6.456;2023-05-10T02:53:50;12.20;99.90
51765;DHT22;37835;53.256;6.456;2023-05-10T02:56:28;12.20;99.90
51765;DHT22;37835;53.256;6.456;2023-05-10T02:58:55;12.20;99.90
51765;DHT22;37835;53.256;6.456;2023-05-10T03:01:21;12.20;99.90
51765;DHT22;37835;53.256;6.456;2023-05-10T03:03:47;12.20;99.90
51765;DHT22;37835;53.256;6.456;2023-05-10T03:06:12;12.20;99.90
51765;DHT22;37835;53.256;6.456;2023-05-10T03:08:38;12.10;99.90
51765;DHT22;37835;53.256;6.456;2023-05-10T03:17:04;12.20;99.90
51765;DHT22;37835;53.256;6.456;2023-05-10T03:22:08;12.10;99.90
51765;DHT22;37835;53.256;6.456;2023-05-10T03:24:35;12.10;99.90
51765;DHT22;37835;53.256;6.456;2023-05-10T03:27:02;12.10;99.90
51765;DHT22;37835;53.256;6.456;2023-05-10T03:29:30;12.10;99.90
51765;DHT22;37835;53.256;6.456;2023-05-10T03:32:00;12.10;99.90
51765;DHT22;37835;53.256;6.456;2023-05-10T03:34:26;12.10;99.90
51765;DHT22;37835;53.256;6.456;2023-05-10T03:36:52;12.10;99.90
51765;DHT22;37835;53.256;6.456;2023-05-10T03:39:17;12.10;99.90
51765;DHT22;37835;53.256;6.456;2023-05-10T03:41:43;12.10;99.90
51765;DHT22;37835;53.256;6.456;2023-05-10T03:44:09;12.10;99.90
51765;DHT22;37835;53.256;6.456;2023-05-10T03:46:34;12.10;99.90
51765;DHT22;37835;53.256;6.456;2023-05-10T03:49:00;12.10;99.90
51765;DHT22;37835;53.256;6.456;2023-05-10T03:51:25;12.10;99.90
51765;DHT22;37835;53.256;6.456;2023-05-10T03:53:54;12.00;99.90
51765;DHT22;37835;53.256;6.456;2023-05-10T03:56:20;12.10;99.90
51765;DHT22;37835;53.256;6.456;2023-05-10T03:58:46;12.10;99.90
51765;DHT22;37835;53.256;6.456;2023-05-10T04:01:12;12.10;99.90
51765;DHT22;37835;53.256;6.456;2023-05-10T04:03:37;12.10;99.90
51765;DHT22;37835;53.256;6.456;2023-05-10T04:06:04;12.10;99.90
51765;DHT22;37835;53.256;6.456;2023-05-10T04:08:30;12.00;99.90
51765;DHT22;37835;53.256;6.456;2023-05-10T04:11:08;12.00;99.90
51765;DHT22;37835;53.256;6.456;2023-05-10T04:13:34;12.00;99.90
51765;DHT22;37835;53.256;6.456;2023-05-10T04:16:00;12.00;99.90
51765;DHT22;37835;53.256;6.456;2023-05-10T04:18:26;12.00;99.90
51765;DHT22;37835;53.256;6.456;2023-05-10T04:20:51;12.00;99.90
51765;DHT22;37835;53.256;6.456;2023-05-10T04:23:17;12.00;99.90
51765;DHT22;37835;53.256;6.456;2023-05-10T04:25:42;12.00;99.90
51765;DHT22;37835;53.256;6.456;2023-05-10T04:28:08;12.00;99.90
51765;DHT22;37835;53.256;6.456;2023-05-10T04:30:34;12.00;99.90
51765;DHT22;37835;53.256;6.456;2023-05-10T04:33:00;12.00;99.90
51765;DHT22;37835;53.256;6.456;2023-05-10T04:35:27;11.80;99.90
51765;DHT22;37835;53.256;6.456;2023-05-10T04:37:53;12.00;99.90
51765;DHT22;37835;53.256;6.456;2023-05-10T04:40:19;12.00;99.90
51765;DHT22;37835;53.256;6.456;2023-05-10T04:42:45;12.00;99.90
51765;DHT22;37835;53.256;6.456;2023-05-10T04:45:11;12.00;99.90
51765;DHT22;37835;53.256;6.456;2023-05-10T04:47:37;12.00;99.90
51765;DHT22;37835;53.256;6.456;2023-05-10T04:50:03;12.00;99.90
51765;DHT22;37835;53.256;6.456;2023-05-10T04:52:29;12.00;99.90
51765;DHT22;37835;53.256;6.456;2023-05-10T04:54:54;12.00;99.90
51765;DHT22;37835;53.256;6.456;2023-05-10T04:57:20;12.00;99.90
51765;DHT22;37835;53.256;6.456;2023-05-10T04:59:45;12.00;99.90
51765;DHT22;37835;53.256;6.456;2023-05-10T05:02:11;12.00;99.90
51765;DHT22;37835;53.256;6.456;2023-05-10T05:04:36;12.00;99.90
51765;DHT22;37835;53.256;6.456;2023-05-10T05:07:02;12.00;99.90
51765;DHT22;37835;53.256;6.456;2023-05-10T05:09:27;12.00;99.90
51765;DHT22;37835;53.256;6.456;2023-05-10T05:11:53;12.00;99.90
51765;DHT22;37835;53.256;6.456;2023-05-10T05:14:19;12.00;99.90
51765;DHT22;37835;53.256;6.456;2023-05-10T05:16:46;12.00;99.90
51765;DHT22;37835;53.256;6.456;2023-05-10T05:19:12;12.00;99.90
51765;DHT22;37835;53.256;6.456;2023-05-10T05:21:37;12.00;99.90
51765;DHT22;37835;53.256;6.456;2023-05-10T05:24:03;12.00;99.90
51765;DHT22;37835;53.256;6.456;2023-05-10T05:26:29;12.10;99.90
51765;DHT22;37835;53.256;6.456;2023-05-10T05:28:55;12.00;99.90
51765;DHT22;37835;53.256;6.456;2023-05-10T05:31:21;12.00;99.90
51765;DHT22;37835;53.256;6.456;2023-05-10T05:33:46;12.10;99.90
51765;DHT22;37835;53.256;6.456;2023-05-10T05:36:12;12.10;99.90
51765;DHT22;37835;53.256;6.456;2023-05-10T05:38:37;12.10;99.90
51765;DHT22;37835;53.256;6.456;2023-05-10T05:41:03;12.00;99.90
51765;DHT22;37835;53.256;6.456;2023-05-10T05:43:29;12.10;99.90
51765;DHT22;37835;53.256;6.456;2023-05-10T05:45:55;12.00;99.90
51765;DHT22;37835;53.256;6.456;2023-05-10T05:48:21;12.00;99.90
51765;DHT22;37835;53.256;6.456;2023-05-10T05:50:46;12.10;99.90
51765;DHT22;37835;53.256;6.456;2023-05-10T05:53:12;12.10;99.90
51765;DHT22;37835;53.256;6.456;2023-05-10T05:55:38;12.00;99.90
51765;DHT22;37835;53.256;6.456;2023-05-10T05:58:03;12.10;99.90
51765;DHT22;37835;53.256;6.456;2023-05-10T06:00:29;12.10;99.90
51765;DHT22;37835;53.256;6.456;2023-05-10T06:02:54;12.00;99.90
51765;DHT22;37835;53.256;6.456;2023-05-10T06:05:20;12.00;99.90
51765;DHT22;37835;53.256;6.456;2023-05-10T06:07:46;12.30;99.90
51765;DHT22;37835;53.256;6.456;2023-05-10T06:10:11;12.00;99.90
51765;DHT22;37835;53.256;6.456;2023-05-10T06:12:37;12.00;99.90
51765;DHT22;37835;53.256;6.456;2023-05-10T06:15:03;12.00;99.90
51765;DHT22;37835;53.256;6.456;2023-05-10T06:17:30;12.00;99.90
51765;DHT22;37835;53.256;6.456;2023-05-10T06:19:56;11.90;99.90
51765;DHT22;37835;53.256;6.456;2023-05-10T06:22:21;12.00;99.90
51765;DHT22;37835;53.256;6.456;2023-05-10T06:24:48;12.00;99.90
51765;DHT22;37835;53.256;6.456;2023-05-10T06:27:14;11.90;99.90
51765;DHT22;37835;53.256;6.456;2023-05-10T06:29:39;11.90;99.90
51765;DHT22;37835;53.256;6.456;2023-05-10T06:32:05;11.90;99.90
51765;DHT22;37835;53.256;6.456;2023-05-10T06:34:31;11.80;99.90
51765;DHT22;37835;53.256;6.456;2023-05-10T06:36:56;11.80;99.90
51765;DHT22;37835;53.256;6.456;2023-05-10T06:39:22;11.80;99.90
51765;DHT22;37835;53.256;6.456;2023-05-10T06:41:47;11.80;99.90
51765;DHT22;37835;53.256;6.456;2023-05-10T06:44:13;11.80;99.90
51765;DHT22;37835;53.256;6.456;2023-05-10T06:46:39;11.80;99.90
51765;DHT22;37835;53.256;6.456;2023-05-10T06:49:04;11.70;99.90
51765;DHT22;37835;53.256;6.456;2023-05-10T06:51:30;11.70;99.90
51765;DHT22;37835;53.256;6.456;2023-05-10T06:53:56;11.70;99.90
51765;DHT22;37835;53.256;6.456;2023-05-10T06:56:21;11.80;99.90
51765;DHT22;37835;53.256;6.456;2023-05-10T06:58:50;11.70;99.90
51765;DHT22;37835;53.256;6.456;2023-05-10T07:01:15;11.80;99.90
51765;DHT22;37835;53.256;6.456;2023-05-10T07:03:41;11.80;99.90
51765;DHT22;37835;53.256;6.456;2023-05-10T07:06:06;11.80;99.90
51765;DHT22;37835;53.256;6.456;2023-05-10T07:08:33;11.80;99.90
51765;DHT22;37835;53.256;6.456;2023-05-10T07:11:03;11.80;99.90
51765;DHT22;37835;53.256;6.456;2023-05-10T07:13:31;11.80;99.90
51765;DHT22;37835;53.256;6.456;2023-05-10T07:15:57;11.80;99.90
51765;DHT22;37835;53.256;6.456;2023-05-10T07:18:23;11.90;99.90
51765;DHT22;37835;53.256;6.456;2023-05-10T07:20:49;11.90;99.90
51765;DHT22;37835;53.256;6.456;2023-05-10T07:23:15;11.90;99.90
51765;DHT22;37835;53.256;6.456;2023-05-10T07:25:40;12.00;99.90
51765;DHT22;37835;53.256;6.456;2023-05-10T07:28:06;12.00;99.90
51765;DHT22;37835;53.256;6.456;2023-05-10T07:30:31;11.90;99.90
51765;DHT22;37835;53.256;6.456;2023-05-10T07:32:57;11.90;99.90
51765;DHT22;37835;53.256;6.456;2023-05-10T07:35:22;12.00;99.90
51765;DHT22;37835;53.256;6.456;2023-05-10T07:37:48;12.00;99.90
51765;DHT22;37835;53.256;6.456;2023-05-10T07:40:13;12.00;99.90
51765;DHT22;37835;53.256;6.456;2023-05-10T07:42:39;12.10;99.90
51765;DHT22;37835;53.256;6.456;2023-05-10T07:45:05;12.10;99.90
51765;DHT22;37835;53.256;6.456;2023-05-10T07:47:31;12.10;99.90
51765;DHT22;37835;53.256;6.456;2023-05-10T07:49:56;12.10;99.90
51765;DHT22;37835;53.256;6.456;2023-05-10T07:52:22;12.10;99.90
51765;DHT22;37835;53.256;6.456;2023-05-10T07:54:47;12.10;99.90
51765;DHT22;37835;53.256;6.456;2023-05-10T07:57:13;12.10;99.90
51765;DHT22;37835;53.256;6.456;2023-05-10T07:59:40;12.10;99.90
51765;DHT22;37835;53.256;6.456;2023-05-10T08:02:06;12.00;99.90
51765;DHT22;37835;53.256;6.456;2023-05-10T08:04:32;12.00;99.90
51765;DHT22;37835;53.256;6.456;2023-05-10T08:06:57;12.00;99.90
51765;DHT22;37835;53.256;6.456;2023-05-10T08:09:23;12.00;99.90
51765;DHT22;37835;53.256;6.456;2023-05-10T08:11:49;12.10;99.90
51765;DHT22;37835;53.256;6.456;2023-05-10T08:14:16;12.10;99.90
51765;DHT22;37835;53.256;6.456;2023-05-10T08:16:41;12.10;99.90
51765;DHT22;37835;53.256;6.456;2023-05-10T08:19:07;12.10;99.90
51765;DHT22;37835;53.256;6.456;2023-05-10T08:21:33;12.00;99.90
51765;DHT22;37835;53.256;6.456;2023-05-10T08:23:58;12.00;99.90
51765;DHT22;37835;53.256;6.456;2023-05-10T08:26:24;12.10;99.90
51765;DHT22;37835;53.256;6.456;2023-05-10T08:28:50;12.10;99.90
51765;DHT22;37835;53.256;6.456;2023-05-10T08:31:15;12.10;99.90
51765;DHT22;37835;53.256;6.456;2023-05-10T08:33:41;12.10;99.90
51765;DHT22;37835;53.256;6.456;2023-05-10T08:36:07;12.10;99.90
51765;DHT22;37835;53.256;6.456;2023-05-10T08:38:32;12.10;99.90
51765;DHT22;37835;53.256;6.456;2023-05-10T08:40:58;12.20;99.90
51765;DHT22;37835;53.256;6.456;2023-05-10T08:43:28;12.20;99.90
51765;DHT22;37835;53.256;6.456;2023-05-10T08:45:55;12.20;99.90
51765;DHT22;37835;53.256;6.456;2023-05-10T08:48:24;12.20;99.90
51765;DHT22;37835;53.256;6.456;2023-05-10T08:50:52;12.30;99.90
51765;DHT22;37835;53.256;6.456;2023-05-10T08:53:19;12.20;99.90
51765;DHT22;37835;53.256;6.456;2023-05-10T08:55:45;12.20;99.90
51765;DHT22;37835;53.256;6.456;2023-05-10T08:58:11;12.20;99.90
51765;DHT22;37835;53.256;6.456;2023-05-10T09:00:37;12.20;99.90
51765;DHT22;37835;53.256;6.456;2023-05-10T09:03:04;12.20;99.90
51765;DHT22;37835;53.256;6.456;2023-05-10T09:05:30;12.20;99.90
51765;DHT22;37835;53.256;6.456;2023-05-10T09:07:56;12.20;99.90
51765;DHT22;37835;53.256;6.456;2023-05-10T09:10:23;12.20;99.90
51765;DHT22;37835;53.256;6.456;2023-05-10T09:12:51;12.30;99.90
51765;DHT22;37835;53.256;6.456;2023-05-10T09:15:18;12.30;99.90
51765;DHT22;37835;53.256;6.456;2023-05-10T09:17:46;12.30;99.90
51765;DHT22;37835;53.256;6.456;2023-05-10T09:20:12;12.40;99.90
51765;DHT22;37835;53.256;6.456;2023-05-10T09:22:37;12.40;99.90
51765;DHT22;37835;53.256;6.456;2023-05-10T09:25:14;12.50;99.90
51765;DHT22;37835;53.256;6.456;2023-05-10T09:27:43;12.50;99.90
51765;DHT22;37835;53.256;6.456;2023-05-10T09:30:09;12.60;99.90
51765;DHT22;37835;53.256;6.456;2023-05-10T09:32:43;12.70;99.90
51765;DHT22;37835;53.256;6.456;2023-05-10T09:35:15;12.70;99.90
51765;DHT22;37835;53.256;6.456;2023-05-10T09:37:42;12.80;99.90
51765;DHT22;37835;53.256;6.456;2023-05-10T09:40:12;12.90;99.90
51765;DHT22;37835;53.256;6.456;2023-05-10T09:42:38;12.90;99.90
51765;DHT22;37835;53.256;6.456;2023-05-10T09:45:04;13.00;99.90
51765;DHT22;37835;53.256;6.456;2023-05-10T09:47:36;13.00;99.90
51765;DHT22;37835;53.256;6.456;2023-05-10T09:50:03;13.00;99.90
51765;DHT22;37835;53.256;6.456;2023-05-10T09:52:52;13.10;99.90
51765;DHT22;37835;53.256;6.456;2023-05-10T09:55:23;13.10;99.90
51765;DHT22;37835;53.256;6.456;2023-05-10T09:57:57;13.20;99.90
51765;DHT22;37835;53.256;6.456;2023-05-10T10:00:23;13.20;99.90
51765;DHT22;37835;53.256;6.456;2023-05-10T10:02:59;13.40;99.90
51765;DHT22;37835;53.256;6.456;2023-05-10T10:05:35;13.50;99.90
51765;DHT22;37835;53.256;6.456;2023-05-10T10:08:03;13.50;99.90
51765;DHT22;37835;53.256;6.456;2023-05-10T10:10:31;13.50;99.90
51765;DHT22;37835;53.256;6.456;2023-05-10T10:12:57;13.60;99.90
51765;DHT22;37835;53.256;6.456;2023-05-10T10:15:23;13.60;99.90
51765;DHT22;37835;53.256;6.456;2023-05-10T10:17:51;13.60;99.90
51765;DHT22;37835;53.256;6.456;2023-05-10T10:20:18;13.60;99.90
51765;DHT22;37835;53.256;6.456;2023-05-10T10:22:44;13.60;99.90
51765;DHT22;37835;53.256;6.456;2023-05-10T10:25:12;13.60;99.90
51765;DHT22;37835;53.256;6.456;2023-05-10T10:33:39;13.60;99.90
51765;DHT22;37835;53.256;6.456;2023-05-10T10:36:06;13.70;99.90
51765;DHT22;37835;53.256;6.456;2023-05-10T10:41:32;13.70;99.90
51765;DHT22;37835;53.256;6.456;2023-05-10T10:49:51;13.70;99.90
51765;DHT22;37835;53.256;6.456;2023-05-10T10:52:26;13.70;99.90
51765;DHT22;37835;53.256;6.456;2023-05-10T10:55:21;13.70;99.90
51765;DHT22;37835;53.256;6.456;2023-05-10T10:57:53;13.70;99.90
51765;DHT22;37835;53.256;6.456;2023-05-10T11:00:32;13.70;99.90
51765;DHT22;37835;53.256;6.456;2023-05-10T11:03:11;13.70;99.90
51765;DHT22;37835;53.256;6.456;2023-05-10T11:11:05;13.80;99.90
51765;DHT22;37835;53.256;6.456;2023-05-10T11:13:45;13.80;99.90
51765;DHT22;37835;53.256;6.456;2023-05-10T11:16:20;13.90;99.90
51765;DHT22;37835;53.256;6.456;2023-05-10T11:19:13;13.90;99.90
51765;DHT22;37835;53.256;6.456;2023-05-10T11:24:36;13.90;99.90
51765;DHT22;37835;53.256;6.456;2023-05-10T11:27:02;14.00;99.90
51765;DHT22;37835;53.256;6.456;2023-05-10T11:29:27;14.00;99.90
51765;DHT22;37835;53.256;6.456;2023-05-10T11:31:57;14.00;99.90
51765;DHT22;37835;53.256;6.456;2023-05-10T11:34:28;14.00;99.90
51765;DHT22;37835;53.256;6.456;2023-05-10T11:36:56;14.10;99.90
51765;DHT22;37835;53.256;6.456;2023-05-10T11:39:29;14.10;99.90
51765;DHT22;37835;53.256;6.456;2023-05-10T11:41:56;14.10;99.90
51765;DHT22;37835;53.256;6.456;2023-05-10T11:44:22;14.10;99.90
51765;DHT22;37835;53.256;6.456;2023-05-10T11:46:49;14.20;99.90
51765;DHT22;37835;53.256;6.456;2023-05-10T11:49:14;14.20;99.90
51765;DHT22;37835;53.256;6.456;2023-05-10T11:51:40;14.20;99.90
51765;DHT22;37835;53.256;6.456;2023-05-10T11:54:09;14.20;99.90
51765;DHT22;37835;53.256;6.456;2023-05-10T11:56:35;14.20;99.90
51765;DHT22;37835;53.256;6.456;2023-05-10T11:59:01;14.20;99.90
51765;DHT22;37835;53.256;6.456;2023-05-10T12:01:28;14.20;99.90
51765;DHT22;37835;53.256;6.456;2023-05-10T12:03:56;14.20;99.90
51765;DHT22;37835;53.256;6.456;2023-05-10T12:06:30;14.20;99.90
51765;DHT22;37835;53.256;6.456;2023-05-10T12:08:57;14.20;99.90
51765;DHT22;37835;53.256;6.456;2023-05-10T12:11:27;14.20;99.90
51765;DHT22;37835;53.256;6.456;2023-05-10T12:13:53;14.10;99.90
51765;DHT22;37835;53.256;6.456;2023-05-10T12:16:24;14.10;99.90
51765;DHT22;37835;53.256;6.456;2023-05-10T12:18:51;14.10;99.90
51765;DHT22;37835;53.256;6.456;2023-05-10T12:21:17;14.10;99.90
51765;DHT22;37835;53.256;6.456;2023-05-10T12:23:45;14.10;99.90
51765;DHT22;37835;53.256;6.456;2023-05-10T12:26:11;14.10;99.90
51765;DHT22;37835;53.256;6.456;2023-05-10T12:28:37;14.10;99.90
51765;DHT22;37835;53.256;6.456;2023-05-10T12:31:05;14.10;99.90
51765;DHT22;37835;53.256;6.456;2023-05-10T12:33:39;14.10;99.90
51765;DHT22;37835;53.256;6.456;2023-05-10T12:36:06;14.10;99.90
51765;DHT22;37835;53.256;6.456;2023-05-10T12:38:37;14.10;99.90
51765;DHT22;37835;53.256;6.456;2023-05-10T12:41:08;14.20;99.90
51765;DHT22;37835;53.256;6.456;2023-05-10T12:43:35;14.10;99.90
51765;DHT22;37835;53.256;6.456;2023-05-10T12:46:08;14.10;99.90
51765;DHT22;37835;53.256;6.456;2023-05-10T12:48:35;14.20;99.90
51765;DHT22;37835;53.256;6.456;2023-05-10T12:51:02;14.10;99.90
51765;DHT22;37835;53.256;6.456;2023-05-10T12:53:28;14.20;99.90
51765;DHT22;37835;53.256;6.456;2023-05-10T12:55:54;14.20;99.90
51765;DHT22;37835;53.256;6.456;2023-05-10T12:58:19;14.20;99.90
51765;DHT22;37835;53.256;6.456;2023-05-10T13:00:45;14.20;99.90
51765;DHT22;37835;53.256;6.456;2023-05-10T13:03:11;14.30;99.90
51765;DHT22;37835;53.256;6.456;2023-05-10T13:05:37;14.30;99.90
51765;DHT22;37835;53.256;6.456;2023-05-10T13:08:03;14.30;99.90
51765;DHT22;37835;53.256;6.456;2023-05-10T13:10:30;14.40;99.90
51765;DHT22;37835;53.256;6.456;2023-05-10T13:12:56;14.40;99.90
51765;DHT22;37835;53.256;6.456;2023-05-10T13:15:22;14.50;99.90
51765;DHT22;37835;53.256;6.456;2023-05-10T13:17:47;14.50;99.90
51765;DHT22;37835;53.256;6.456;2023-05-10T13:20:13;14.60;99.90
51765;DHT22;37835;53.256;6.456;2023-05-10T13:22:40;14.60;99.90
51765;DHT22;37835;53.256;6.456;2023-05-10T13:25:06;14.60;99.90
51765;DHT22;37835;53.256;6.456;2023-05-10T13:27:32;14.60;99.90
51765;DHT22;37835;53.256;6.456;2023-05-10T13:29:57;14.60;99.90
51765;DHT22;37835;53.256;6.456;2023-05-10T13:32:25;14.70;99.90
51765;DHT22;37835;53.256;6.456;2023-05-10T13:34:51;14.70;99.90
51765;DHT22;37835;53.256;6.456;2023-05-10T13:37:16;14.70;99.90
51765;DHT22;37835;53.256;6.456;2023-05-10T13:39:42;14.80;99.90
51765;DHT22;37835;53.256;6.456;2023-05-10T13:42:08;14.80;99.90
51765;DHT22;37835;53.256;6.456;2023-05-10T13:44:33;14.80;99.90
51765;DHT22;37835;53.256;6.456;2023-05-10T13:46:59;14.80;99.90
51765;DHT22;37835;53.256;6.456;2023-05-10T13:49:25;14.80;99.90
51765;DHT22;37835;53.256;6.456;2023-05-10T13:51:50;14.80;99.90
51765;DHT22;37835;53.256;6.456;2023-05-10T13:54:17;14.80;99.90
51765;DHT22;37835;53.256;6.456;2023-05-10T13:56:45;14.80;99.90
51765;DHT22;37835;53.256;6.456;2023-05-10T13:59:12;14.80;99.90
51765;DHT22;37835;53.256;6.456;2023-05-10T14:01:39;14.80;99.90
51765;DHT22;37835;53.256;6.456;2023-05-10T14:04:05;14.80;99.90
51765;DHT22;37835;53.256;6.456;2023-05-10T14:06:31;14.90;99.90
51765;DHT22;37835;53.256;6.456;2023-05-10T14:08:57;14.90;99.90
51765;DHT22;37835;53.256;6.456;2023-05-10T14:11:22;14.80;99.90
51765;DHT22;37835;53.256;6.456;2023-05-10T14:13:48;14.80;99.90
51765;DHT22;37835;53.256;6.456;2023-05-10T14:16:14;14.80;99.90
51765;DHT22;37835;53.256;6.456;2023-05-10T14:18:40;14.80;99.90
51765;DHT22;37835;53.256;6.456;2023-05-10T14:21:05;14.80;99.90
51765;DHT22;37835;53.256;6.456;2023-05-10T14:23:31;14.80;99.90
51765;DHT22;37835;53.256;6.456;2023-05-10T14:25:57;14.80;99.90
51765;DHT22;37835;53.256;6.456;2023-05-10T14:28:22;14.80;99.90
51765;DHT22;37835;53.256;6.456;2023-05-10T14:30:49;14.80;99.90
51765;DHT22;37835;53.256;6.456;2023-05-10T14:33:16;14.90;99.90
51765;DHT22;37835;53.256;6.456;2023-05-10T14:35:41;14.90;99.90
51765;DHT22;37835;53.256;6.456;2023-05-10T14:38:07;14.90;99.90
51765;DHT22;37835;53.256;6.456;2023-05-10T14:40:32;14.90;99.90
51765;DHT22;37835;53.256;6.456;2023-05-10T14:42:58;14.90;99.90
51765;DHT22;37835;53.256;6.456;2023-05-10T14:45:24;15.00;99.90
51765;DHT22;37835;53.256;6.456;2023-05-10T14:47:49;15.00;99.90
51765;DHT22;37835;53.256;6.456;2023-05-10T14:50:15;15.00;99.90
51765;DHT22;37835;53.256;6.456;2023-05-10T14:52:42;15.10;99.90
51765;DHT22;37835;53.256;6.456;2023-05-10T14:55:08;15.10;99.90
51765;DHT22;37835;53.256;6.456;2023-05-10T14:57:34;15.20;99.90
51765;DHT22;37835;53.256;6.456;2023-05-10T14:59:59;15.20;99.90
51765;DHT22;37835;53.256;6.456;2023-05-10T15:02:25;15.20;99.90
51765;DHT22;37835;53.256;6.456;2023-05-10T15:04:50;15.20;99.90
51765;DHT22;37835;53.256;6.456;2023-05-10T15:07:16;15.20;99.90
51765;DHT22;37835;53.256;6.456;2023-05-10T15:09:44;15.20;99.90
51765;DHT22;37835;53.256;6.456;2023-05-10T15:12:09;15.20;99.90
51765;DHT22;37835;53.256;6.456;2023-05-10T15:14:35;15.20;99.90
51765;DHT22;37835;53.256;6.456;2023-05-10T15:17:01;15.20;99.90
51765;DHT22;37835;53.256;6.456;2023-05-10T15:19:27;15.10;99.90
51765;DHT22;37835;53.256;6.456;2023-05-10T15:21:54;15.10;99.90
51765;DHT22;37835;53.256;6.456;2023-05-10T15:24:21;15.10;99.90
51765;DHT22;37835;53.256;6.456;2023-05-10T15:26:47;15.00;99.90
51765;DHT22;37835;53.256;6.456;2023-05-10T15:29:12;14.90;99.90
51765;DHT22;37835;53.256;6.456;2023-05-10T15:31:47;14.90;99.90
51765;DHT22;37835;53.256;6.456;2023-05-10T15:34:14;14.90;99.90
51765;DHT22;37835;53.256;6.456;2023-05-10T15:36:40;14.90;99.90
51765;DHT22;37835;53.256;6.456;2023-05-10T15:39:05;14.80;99.90
51765;DHT22;37835;53.256;6.456;2023-05-10T15:41:31;14.80;99.90
51765;DHT22;37835;53.256;6.456;2023-05-10T15:43:57;14.80;99.90
51765;DHT22;37835;53.256;6.456;2023-05-10T15:46:25;14.70;99.90
51765;DHT22;37835;53.256;6.456;2023-05-10T15:48:51;14.80;99.90
51765;DHT22;37835;53.256;6.456;2023-05-10T15:51:17;14.80;99.90
51765;DHT22;37835;53.256;6.456;2023-05-10T15:53:44;14.70;99.90
51765;DHT22;37835;53.256;6.456;2023-05-10T15:56:09;14.10;99.90
51765;DHT22;37835;53.256;6.456;2023-05-10T15:58:35;14.60;99.90
51765;DHT22;37835;53.256;6.456;2023-05-10T16:01:01;14.60;99.90
51765;DHT22;37835;53.256;6.456;2023-05-10T16:03:28;14.60;99.90
51765;DHT22;37835;53.256;6.456;2023-05-10T16:05:55;14.70;99.90
51765;DHT22;37835;53.256;6.456;2023-05-10T16:08:20;14.80;99.90
51765;DHT22;37835;53.256;6.456;2023-05-10T16:10:46;14.90;99.90
51765;DHT22;37835;53.256;6.456;2023-05-10T16:13:11;14.90;99.90
51765;DHT22;37835;53.256;6.456;2023-05-10T16:15:39;14.90;99.90
51765;DHT22;37835;53.256;6.456;2023-05-10T16:18:05;14.80;99.90
51765;DHT22;37835;53.256;6.456;2023-05-10T16:20:31;14.90;99.90